sensor_id;sensor_type;location;lat;lon;timestamp;P1;durP1;ratioP1;P2;durP2;ratioP2
3847;SDS011;1939;48.720;9.166;2023-04-16T00:00:41;19.30;;;11.07;;
3847;SDS011;1939;48.720;9.166;2023-04-16T00:03:06;18.70;;;10.67;;
3847;SDS011;1939;48.720;9.166;2023-04-16T00:05:31;21.60;;;12.23;;
3847;SDS011;1939;48.720;9.166;2023-04-16T00:07:57;20.60;;;12.47;;
3847;SDS011;1939;48.720;9.166;2023-04-16T00:10:22;19.00;;;11.20;;
3847;SDS011;1939;48.720;9.166;2023-04-16T00:12:47;17.77;;;10.50;;
3847;SDS011;1939;48.720;9.166;2023-04-16T00:15:13;21.00;;;11.60;;
3847;SDS011;1939;48.720;9.166;2023-04-16T00:17:39;18.33;;;11.43;;
3847;SDS011;1939;48.720;9.166;2023-04-16T00:20:04;24.43;;;11.93;;
3847;SDS011;1939;48.720;9.166;2023-04-16T00:22:29;19.70;;;10.80;;
3847;SDS011;1939;48.720;9.166;2023-04-16T00:24:55;19.60;;;12.37;;
3847;SDS011;1939;48.720;9.166;2023-04-16T00:27:20;21.77;;;11.53;;
3847;SDS011;1939;48.720;9.166;2023-04-16T00:29:45;22.10;;;12.27;;
3847;SDS011;1939;48.720;9.166;2023-04-16T00:32:11;22.17;;;11.97;;
3847;SDS011;1939;48.720;9.166;2023-04-16T00:34:36;17.77;;;12.00;;
3847;SDS011;1939;48.720;9.166;2023-04-16T00:37:01;18.80;;;12.03;;
3847;SDS011;1939;48.720;9.166;2023-04-16T00:39:26;19.47;;;11.23;;
3847;SDS011;1939;48.720;9.166;2023-04-16T00:41:52;19.87;;;11.97;;
3847;SDS011;1939;48.720;9.166;2023-04-16T00:44:17;20.03;;;11.57;;
3847;SDS011;1939;48.720;9.166;2023-04-16T00:46:42;21.23;;;12.80;;
3847;SDS011;1939;48.720;9.166;2023-04-16T00:49:08;19.30;;;12.17;;
3847;SDS011;1939;48.720;9.166;2023-04-16T00:51:34;24.57;;;12.83;;
3847;SDS011;1939;48.720;9.166;2023-04-16T00:53:59;20.67;;;11.27;;
3847;SDS011;1939;48.720;9.166;2023-04-16T00:56:25;21.20;;;11.80;;
3847;SDS011;1939;48.720;9.166;2023-04-16T00:58:51;21.13;;;11.63;;
3847;SDS011;1939;48.720;9.166;2023-04-16T01:01:16;18.97;;;12.43;;
3847;SDS011;1939;48.720;9.166;2023-04-16T01:03:45;17.87;;;10.30;;
3847;SDS011;1939;48.720;9.166;2023-04-16T01:06:10;19.57;;;11.27;;
3847;SDS011;1939;48.720;9.166;2023-04-16T01:08:36;23.10;;;12.70;;
3847;SDS011;1939;48.720;9.166;2023-04-16T01:11:01;21.37;;;11.97;;
3847;SDS011;1939;48.720;9.166;2023-04-16T01:13:27;18.87;;;11.20;;
3847;SDS011;1939;48.720;9.166;2023-04-16T01:15:52;18.23;;;10.70;;
3847;SDS011;1939;48.720;9.166;2023-04-16T01:18:18;20.27;;;11.80;;
3847;SDS011;1939;48.720;9.166;2023-04-16T01:20:44;17.27;;;10.60;;
3847;SDS011;1939;48.720;9.166;2023-04-16T01:23:10;18.40;;;10.97;;
3847;SDS011;1939;48.720;9.166;2023-04-16T01:25:35;16.47;;;10.17;;
3847;SDS011;1939;48.720;9.166;2023-04-16T01:28:01;18.70;;;10.50;;
3847;SDS011;1939;48.720;9.166;2023-04-16T01:30:26;17.40;;;10.73;;
3847;SDS011;1939;48.720;9.166;2023-04-16T01:32:52;17.83;;;10.90;;
3847;SDS011;1939;48.720;9.166;2023-04-16T01:35:17;18.57;;;10.10;;
3847;SDS011;1939;48.720;9.166;2023-04-16T01:37:42;16.00;;;9.90;;
3847;SDS011;1939;48.720;9.166;2023-04-16T01:40:08;14.90;;;9.60;;
3847;SDS011;1939;48.720;9.166;2023-04-16T01:42:33;16.77;;;10.07;;
3847;SDS011;1939;48.720;9.166;2023-04-16T01:44:58;19.17;;;10.57;;
3847;SDS011;1939;48.720;9.166;2023-04-16T01:47:24;15.43;;;9.20;;
3847;SDS011;1939;48.720;9.166;2023-04-16T01:49:49;21.77;;;11.00;;
3847;SDS011;1939;48.720;9.166;2023-04-16T01:52:14;17.33;;;9.87;;
3847;SDS011;1939;48.720;9.166;2023-04-16T01:54:40;15.37;;;9.87;;
3847;SDS011;1939;48.720;9.166;2023-04-16T01:57:05;18.03;;;9.43;;
3847;SDS011;1939;48.720;9.166;2023-04-16T01:59:30;13.10;;;8.77;;
3847;SDS011;1939;48.720;9.166;2023-04-16T02:01:55;15.00;;;9.50;;
3847;SDS011;1939;48.720;9.166;2023-04-16T02:04:21;13.20;;;8.47;;
3847;SDS011;1939;48.720;9.166;2023-04-16T02:06:46;13.20;;;8.43;;
3847;SDS011;1939;48.720;9.166;2023-04-16T02:09:11;15.23;;;9.70;;
3847;SDS011;1939;48.720;9.166;2023-04-16T02:11:36;13.90;;;9.20;;
3847;SDS011;1939;48.720;9.166;2023-04-16T02:14:02;12.20;;;7.90;;
3847;SDS011;1939;48.720;9.166;2023-04-16T02:16:27;12.27;;;8.40;;
3847;SDS011;1939;48.720;9.166;2023-04-16T02:18:53;13.40;;;7.90;;
3847;SDS011;1939;48.720;9.166;2023-04-16T02:21:18;13.50;;;7.87;;
3847;SDS011;1939;48.720;9.166;2023-04-16T02:23:44;12.10;;;8.30;;
3847;SDS011;1939;48.720;9.166;2023-04-16T02:26:11;11.67;;;7.67;;
3847;SDS011;1939;48.720;9.166;2023-04-16T02:28:37;11.93;;;6.80;;
3847;SDS011;1939;48.720;9.166;2023-04-16T02:31:02;16.13;;;9.23;;
3847;SDS011;1939;48.720;9.166;2023-04-16T02:33:28;13.73;;;7.50;;
3847;SDS011;1939;48.720;9.166;2023-04-16T02:35:53;12.03;;;7.77;;
3847;SDS011;1939;48.720;9.166;2023-04-16T02:38:18;10.33;;;6.90;;
3847;SDS011;1939;48.720;9.166;2023-04-16T02:40:43;11.33;;;7.27;;
3847;SDS011;1939;48.720;9.166;2023-04-16T02:43:08;13.43;;;8.07;;
3847;SDS011;1939;48.720;9.166;2023-04-16T02:45:34;13.03;;;7.80;;
3847;SDS011;1939;48.720;9.166;2023-04-16T02:47:59;12.70;;;7.60;;
3847;SDS011;1939;48.720;9.166;2023-04-16T02:50:24;16.27;;;8.30;;
3847;SDS011;1939;48.720;9.166;2023-04-16T02:52:50;12.87;;;7.40;;
3847;SDS011;1939;48.720;9.166;2023-04-16T02:55:15;12.00;;;7.43;;
3847;SDS011;1939;48.720;9.166;2023-04-16T02:57:40;16.77;;;8.17;;
3847;SDS011;1939;48.720;9.166;2023-04-16T03:00:06;13.00;;;7.70;;
3847;SDS011;1939;48.720;9.166;2023-04-16T03:02:32;12.27;;;7.17;;
3847;SDS011;1939;48.720;9.166;2023-04-16T03:04:57;15.20;;;8.40;;
3847;SDS011;1939;48.720;9.166;2023-04-16T03:07:23;12.40;;;7.40;;
3847;SDS011;1939;48.720;9.166;2023-04-16T03:09:48;12.10;;;7.20;;
3847;SDS011;1939;48.720;9.166;2023-04-16T03:12:13;16.03;;;9.10;;
3847;SDS011;1939;48.720;9.166;2023-04-16T03:14:38;14.20;;;8.40;;
3847;SDS011;1939;48.720;9.166;2023-04-16T03:17:04;14.63;;;8.50;;
3847;SDS011;1939;48.720;9.166;2023-04-16T03:19:29;12.73;;;7.10;;
3847;SDS011;1939;48.720;9.166;2023-04-16T03:21:55;13.67;;;7.97;;
3847;SDS011;1939;48.720;9.166;2023-04-16T03:24:20;12.53;;;7.53;;
3847;SDS011;1939;48.720;9.166;2023-04-16T03:26:45;16.03;;;7.93;;
3847;SDS011;1939;48.720;9.166;2023-04-16T03:29:10;16.77;;;8.80;;
3847;SDS011;1939;48.720;9.166;2023-04-16T03:31:36;14.40;;;7.40;;
3847;SDS011;1939;48.720;9.166;2023-04-16T03:34:01;18.60;;;8.43;;
3847;SDS011;1939;48.720;9.166;2023-04-16T03:36:26;18.83;;;9.50;;
3847;SDS011;1939;48.720;9.166;2023-04-16T03:38:52;15.67;;;7.43;;
3847;SDS011;1939;48.720;9.166;2023-04-16T03:41:17;20.47;;;10.27;;
3847;SDS011;1939;48.720;9.166;2023-04-16T03:43:42;17.30;;;9.50;;
3847;SDS011;1939;48.720;9.166;2023-04-16T03:46:07;17.40;;;9.53;;
3847;SDS011;1939;48.720;9.166;2023-04-16T03:48:33;17.37;;;9.50;;
3847;SDS011;1939;48.720;9.166;2023-04-16T03:50:58;20.17;;;10.03;;
3847;SDS011;1939;48.720;9.166;2023-04-16T03:53:23;16.70;;;10.70;;
3847;SDS011;1939;48.720;9.166;2023-04-16T03:55:49;15.77;;;9.13;;
3847;SDS011;1939;48.720;9.166;2023-04-16T03:58:15;17.50;;;9.40;;
3847;SDS011;1939;48.720;9.166;2023-04-16T04:00:40;13.57;;;7.03;;
3847;SDS011;1939;48.720;9.166;2023-04-16T04:03:06;13.20;;;7.50;;
3847;SDS011;1939;48.720;9.166;2023-04-16T04:05:35;20.20;;;8.57;;
3847;SDS011;1939;48.720;9.166;2023-04-16T04:08:00;18.00;;;9.43;;
3847;SDS011;1939;48.720;9.166;2023-04-16T04:10:25;17.00;;;10.20;;
3847;SDS011;1939;48.720;9.166;2023-04-16T04:12:51;17.87;;;9.37;;
3847;SDS011;1939;48.720;9.166;2023-04-16T04:15:16;16.00;;;10.00;;
3847;SDS011;1939;48.720;9.166;2023-04-16T04:17:41;19.23;;;9.87;;
3847;SDS011;1939;48.720;9.166;2023-04-16T04:20:06;19.47;;;10.23;;
3847;SDS011;1939;48.720;9.166;2023-04-16T04:22:32;19.40;;;11.53;;
3847;SDS011;1939;48.720;9.166;2023-04-16T04:24:57;19.53;;;9.87;;
3847;SDS011;1939;48.720;9.166;2023-04-16T04:27:22;23.00;;;11.30;;
3847;SDS011;1939;48.720;9.166;2023-04-16T04:29:47;18.43;;;9.87;;
3847;SDS011;1939;48.720;9.166;2023-04-16T04:32:13;22.73;;;10.87;;
3847;SDS011;1939;48.720;9.166;2023-04-16T04:34:38;20.40;;;9.53;;
3847;SDS011;1939;48.720;9.166;2023-04-16T04:37:03;16.30;;;9.90;;
3847;SDS011;1939;48.720;9.166;2023-04-16T04:39:28;18.97;;;8.83;;
3847;SDS011;1939;48.720;9.166;2023-04-16T04:41:53;16.53;;;8.97;;
3847;SDS011;1939;48.720;9.166;2023-04-16T04:44:19;18.80;;;9.03;;
3847;SDS011;1939;48.720;9.166;2023-04-16T04:46:44;18.07;;;8.30;;
3847;SDS011;1939;48.720;9.166;2023-04-16T04:49:09;17.60;;;8.90;;
3847;SDS011;1939;48.720;9.166;2023-04-16T04:51:35;18.53;;;9.67;;
3847;SDS011;1939;48.720;9.166;2023-04-16T04:54:00;21.00;;;9.90;;
3847;SDS011;1939;48.720;9.166;2023-04-16T04:56:25;18.10;;;9.00;;
3847;SDS011;1939;48.720;9.166;2023-04-16T04:58:51;20.03;;;9.27;;
3847;SDS011;1939;48.720;9.166;2023-04-16T05:01:16;20.30;;;9.50;;
3847;SDS011;1939;48.720;9.166;2023-04-16T05:03:41;20.50;;;9.40;;
3847;SDS011;1939;48.720;9.166;2023-04-16T05:06:06;20.47;;;8.93;;
3847;SDS011;1939;48.720;9.166;2023-04-16T05:08:32;20.57;;;9.67;;
3847;SDS011;1939;48.720;9.166;2023-04-16T05:10:57;18.93;;;9.87;;
3847;SDS011;1939;48.720;9.166;2023-04-16T05:13:22;17.90;;;9.80;;
3847;SDS011;1939;48.720;9.166;2023-04-16T05:15:47;20.90;;;10.53;;
3847;SDS011;1939;48.720;9.166;2023-04-16T05:18:13;21.63;;;10.90;;
3847;SDS011;1939;48.720;9.166;2023-04-16T05:20:38;17.23;;;8.90;;
3847;SDS011;1939;48.720;9.166;2023-04-16T05:23:03;16.20;;;8.77;;
3847;SDS011;1939;48.720;9.166;2023-04-16T05:25:28;18.30;;;9.77;;
3847;SDS011;1939;48.720;9.166;2023-04-16T05:27:53;17.33;;;9.07;;
3847;SDS011;1939;48.720;9.166;2023-04-16T05:30:19;18.50;;;9.20;;
3847;SDS011;1939;48.720;9.166;2023-04-16T05:32:44;19.90;;;10.70;;
3847;SDS011;1939;48.720;9.166;2023-04-16T05:35:09;18.67;;;10.23;;
3847;SDS011;1939;48.720;9.166;2023-04-16T05:37:35;28.40;;;13.30;;
3847;SDS011;1939;48.720;9.166;2023-04-16T05:40:00;26.53;;;13.40;;
3847;SDS011;1939;48.720;9.166;2023-04-16T05:42:25;28.20;;;13.37;;
3847;SDS011;1939;48.720;9.166;2023-04-16T05:44:50;31.47;;;14.20;;
3847;SDS011;1939;48.720;9.166;2023-04-16T05:47:16;34.70;;;15.57;;
3847;SDS011;1939;48.720;9.166;2023-04-16T05:49:41;29.77;;;14.90;;
3847;SDS011;1939;48.720;9.166;2023-04-16T05:52:07;33.57;;;15.57;;
3847;SDS011;1939;48.720;9.166;2023-04-16T05:54:32;34.70;;;16.33;;
3847;SDS011;1939;48.720;9.166;2023-04-16T05:56:58;39.20;;;18.37;;
3847;SDS011;1939;48.720;9.166;2023-04-16T05:59:23;45.53;;;18.93;;
3847;SDS011;1939;48.720;9.166;2023-04-16T06:01:49;42.20;;;19.23;;
3847;SDS011;1939;48.720;9.166;2023-04-16T06:04:14;46.27;;;21.00;;
3847;SDS011;1939;48.720;9.166;2023-04-16T06:06:40;57.33;;;21.30;;
3847;SDS011;1939;48.720;9.166;2023-04-16T06:09:05;51.63;;;21.63;;
3847;SDS011;1939;48.720;9.166;2023-04-16T06:11:30;42.17;;;19.87;;
3847;SDS011;1939;48.720;9.166;2023-04-16T06:13:56;53.37;;;21.77;;
3847;SDS011;1939;48.720;9.166;2023-04-16T06:16:21;50.07;;;21.67;;
3847;SDS011;1939;48.720;9.166;2023-04-16T06:18:46;52.23;;;21.87;;
3847;SDS011;1939;48.720;9.166;2023-04-16T06:21:11;48.07;;;21.47;;
3847;SDS011;1939;48.720;9.166;2023-04-16T06:23:36;56.37;;;21.70;;
3847;SDS011;1939;48.720;9.166;2023-04-16T06:26:02;58.57;;;24.00;;
3847;SDS011;1939;48.720;9.166;2023-04-16T06:28:27;61.83;;;25.90;;
3847;SDS011;1939;48.720;9.166;2023-04-16T06:30:52;49.70;;;23.00;;
3847;SDS011;1939;48.720;9.166;2023-04-16T06:33:17;53.07;;;23.17;;
3847;SDS011;1939;48.720;9.166;2023-04-16T06:35:43;48.17;;;22.87;;
3847;SDS011;1939;48.720;9.166;2023-04-16T06:38:08;56.93;;;23.00;;
3847;SDS011;1939;48.720;9.166;2023-04-16T06:40:33;59.33;;;22.40;;
3847;SDS011;1939;48.720;9.166;2023-04-16T06:43:01;53.87;;;21.63;;
3847;SDS011;1939;48.720;9.166;2023-04-16T06:45:26;49.07;;;22.10;;
3847;SDS011;1939;48.720;9.166;2023-04-16T06:47:51;46.23;;;21.00;;
3847;SDS011;1939;48.720;9.166;2023-04-16T06:50:16;56.17;;;23.37;;
3847;SDS011;1939;48.720;9.166;2023-04-16T06:52:41;56.63;;;25.20;;
3847;SDS011;1939;48.720;9.166;2023-04-16T06:55:07;54.70;;;24.87;;
3847;SDS011;1939;48.720;9.166;2023-04-16T06:57:34;60.20;;;23.70;;
3847;SDS011;1939;48.720;9.166;2023-04-16T06:59:59;54.77;;;23.90;;
3847;SDS011;1939;48.720;9.166;2023-04-16T07:02:24;52.80;;;23.83;;
3847;SDS011;1939;48.720;9.166;2023-04-16T07:04:50;50.13;;;24.10;;
3847;SDS011;1939;48.720;9.166;2023-04-16T07:07:16;48.17;;;22.00;;
3847;SDS011;1939;48.720;9.166;2023-04-16T07:09:41;53.30;;;20.53;;
3847;SDS011;1939;48.720;9.166;2023-04-16T07:12:06;47.37;;;20.93;;
3847;SDS011;1939;48.720;9.166;2023-04-16T07:14:32;48.13;;;21.03;;
3847;SDS011;1939;48.720;9.166;2023-04-16T07:16:57;54.63;;;26.73;;
3847;SDS011;1939;48.720;9.166;2023-04-16T07:19:22;46.80;;;24.07;;
3847;SDS011;1939;48.720;9.166;2023-04-16T07:21:48;48.53;;;23.37;;
3847;SDS011;1939;48.720;9.166;2023-04-16T07:24:13;44.90;;;21.40;;
3847;SDS011;1939;48.720;9.166;2023-04-16T07:26:38;53.70;;;22.43;;
3847;SDS011;1939;48.720;9.166;2023-04-16T07:29:03;45.97;;;20.40;;
3847;SDS011;1939;48.720;9.166;2023-04-16T07:31:29;45.70;;;20.40;;
3847;SDS011;1939;48.720;9.166;2023-04-16T07:33:55;42.23;;;20.13;;
3847;SDS011;1939;48.720;9.166;2023-04-16T07:36:20;51.53;;;23.17;;
3847;SDS011;1939;48.720;9.166;2023-04-16T07:38:45;42.37;;;21.30;;
3847;SDS011;1939;48.720;9.166;2023-04-16T07:41:10;45.40;;;21.27;;
3847;SDS011;1939;48.720;9.166;2023-04-16T07:43:35;42.33;;;18.67;;
3847;SDS011;1939;48.720;9.166;2023-04-16T07:46:01;46.80;;;22.47;;
3847;SDS011;1939;48.720;9.166;2023-04-16T07:48:26;44.67;;;22.60;;
3847;SDS011;1939;48.720;9.166;2023-04-16T07:50:51;41.23;;;21.20;;
3847;SDS011;1939;48.720;9.166;2023-04-16T07:53:16;40.80;;;20.17;;
3847;SDS011;1939;48.720;9.166;2023-04-16T07:55:41;42.80;;;20.13;;
3847;SDS011;1939;48.720;9.166;2023-04-16T07:58:07;37.27;;;18.83;;
3847;SDS011;1939;48.720;9.166;2023-04-16T08:00:33;39.97;;;19.67;;
3847;SDS011;1939;48.720;9.166;2023-04-16T08:02:59;36.37;;;17.80;;
3847;SDS011;1939;48.720;9.166;2023-04-16T08:05:24;40.63;;;20.77;;
3847;SDS011;1939;48.720;9.166;2023-04-16T08:07:49;38.47;;;20.07;;
3847;SDS011;1939;48.720;9.166;2023-04-16T08:10:14;38.77;;;20.50;;
3847;SDS011;1939;48.720;9.166;2023-04-16T08:12:40;40.73;;;19.33;;
3847;SDS011;1939;48.720;9.166;2023-04-16T08:15:05;34.07;;;17.63;;
3847;SDS011;1939;48.720;9.166;2023-04-16T08:17:31;37.50;;;18.40;;
3847;SDS011;1939;48.720;9.166;2023-04-16T08:19:58;52.33;;;19.43;;
3847;SDS011;1939;48.720;9.166;2023-04-16T08:22:23;36.73;;;18.90;;
3847;SDS011;1939;48.720;9.166;2023-04-16T08:24:48;37.63;;;17.93;;
3847;SDS011;1939;48.720;9.166;2023-04-16T08:27:14;35.97;;;17.60;;
3847;SDS011;1939;48.720;9.166;2023-04-16T08:29:40;40.77;;;18.17;;
3847;SDS011;1939;48.720;9.166;2023-04-16T08:32:05;33.50;;;18.33;;
3847;SDS011;1939;48.720;9.166;2023-04-16T08:34:30;36.60;;;18.87;;
3847;SDS011;1939;48.720;9.166;2023-04-16T08:36:56;45.60;;;21.50;;
3847;SDS011;1939;48.720;9.166;2023-04-16T08:39:21;37.13;;;19.17;;
3847;SDS011;1939;48.720;9.166;2023-04-16T08:41:46;32.23;;;17.33;;
3847;SDS011;1939;48.720;9.166;2023-04-16T08:44:27;30.07;;;17.30;;
3847;SDS011;1939;48.720;9.166;2023-04-16T08:46:56;32.00;;;17.70;;
3847;SDS011;1939;48.720;9.166;2023-04-16T08:49:23;36.73;;;18.40;;
3847;SDS011;1939;48.720;9.166;2023-04-16T08:51:49;32.90;;;18.17;;
3847;SDS011;1939;48.720;9.166;2023-04-16T08:54:18;37.63;;;18.70;;
3847;SDS011;1939;48.720;9.166;2023-04-16T08:56:45;31.60;;;17.13;;
3847;SDS011;1939;48.720;9.166;2023-04-16T08:59:11;34.20;;;17.90;;
3847;SDS011;1939;48.720;9.166;2023-04-16T09:01:36;37.30;;;18.33;;
3847;SDS011;1939;48.720;9.166;2023-04-16T09:04:03;29.20;;;15.97;;
3847;SDS011;1939;48.720;9.166;2023-04-16T09:06:30;31.17;;;17.67;;
3847;SDS011;1939;48.720;9.166;2023-04-16T09:08:57;31.63;;;18.50;;
3847;SDS011;1939;48.720;9.166;2023-04-16T09:11:23;29.17;;;15.63;;
3847;SDS011;1939;48.720;9.166;2023-04-16T09:13:49;26.97;;;14.13;;
3847;SDS011;1939;48.720;9.166;2023-04-16T09:16:15;28.80;;;14.90;;
3847;SDS011;1939;48.720;9.166;2023-04-16T09:18:41;30.70;;;14.83;;
3847;SDS011;1939;48.720;9.166;2023-04-16T09:21:08;27.57;;;13.73;;
3847;SDS011;1939;48.720;9.166;2023-04-16T09:23:33;25.53;;;13.43;;
3847;SDS011;1939;48.720;9.166;2023-04-16T09:25:59;25.03;;;12.70;;
3847;SDS011;1939;48.720;9.166;2023-04-16T09:28:43;23.60;;;12.40;;
3847;SDS011;1939;48.720;9.166;2023-04-16T09:31:15;27.90;;;13.73;;
3847;SDS011;1939;48.720;9.166;2023-04-16T09:33:41;27.03;;;13.00;;
3847;SDS011;1939;48.720;9.166;2023-04-16T09:36:07;21.73;;;12.57;;
3847;SDS011;1939;48.720;9.166;2023-04-16T09:38:45;25.97;;;14.60;;
3847;SDS011;1939;48.720;9.166;2023-04-16T09:41:11;27.30;;;12.97;;
3847;SDS011;1939;48.720;9.166;2023-04-16T09:43:37;24.80;;;12.80;;
3847;SDS011;1939;48.720;9.166;2023-04-16T09:46:03;26.80;;;14.10;;
3847;SDS011;1939;48.720;9.166;2023-04-16T09:48:28;28.23;;;14.40;;
3847;SDS011;1939;48.720;9.166;2023-04-16T09:50:54;25.43;;;14.90;;
3847;SDS011;1939;48.720;9.166;2023-04-16T09:53:26;21.77;;;12.67;;
3847;SDS011;1939;48.720;9.166;2023-04-16T09:55:52;28.60;;;14.47;;
3847;SDS011;1939;48.720;9.166;2023-04-16T09:58:19;29.10;;;14.57;;
3847;SDS011;1939;48.720;9.166;2023-04-16T10:00:45;24.50;;;13.80;;
3847;SDS011;1939;48.720;9.166;2023-04-16T10:03:10;24.90;;;13.77;;
3847;SDS011;1939;48.720;9.166;2023-04-16T10:05:36;27.60;;;15.00;;
3847;SDS011;1939;48.720;9.166;2023-04-16T10:08:01;22.93;;;13.63;;
3847;SDS011;1939;48.720;9.166;2023-04-16T10:10:26;28.67;;;13.27;;
3847;SDS011;1939;48.720;9.166;2023-04-16T10:12:52;24.57;;;12.97;;
3847;SDS011;1939;48.720;9.166;2023-04-16T10:15:19;21.63;;;12.37;;
3847;SDS011;1939;48.720;9.166;2023-04-16T10:17:44;27.20;;;14.67;;
3847;SDS011;1939;48.720;9.166;2023-04-16T10:20:09;29.90;;;15.20;;
3847;SDS011;1939;48.720;9.166;2023-04-16T10:22:35;27.70;;;14.10;;
3847;SDS011;1939;48.720;9.166;2023-04-16T10:25:00;33.87;;;16.20;;
3847;SDS011;1939;48.720;9.166;2023-04-16T10:27:27;24.60;;;14.23;;
3847;SDS011;1939;48.720;9.166;2023-04-16T10:29:52;29.50;;;15.40;;
3847;SDS011;1939;48.720;9.166;2023-04-16T10:32:17;26.60;;;13.77;;
3847;SDS011;1939;48.720;9.166;2023-04-16T10:34:46;30.57;;;16.73;;
3847;SDS011;1939;48.720;9.166;2023-04-16T10:37:11;29.70;;;14.50;;
3847;SDS011;1939;48.720;9.166;2023-04-16T10:39:36;26.93;;;15.27;;
3847;SDS011;1939;48.720;9.166;2023-04-16T10:42:06;31.80;;;15.30;;
3847;SDS011;1939;48.720;9.166;2023-04-16T10:44:31;28.60;;;14.70;;
3847;SDS011;1939;48.720;9.166;2023-04-16T10:46:58;27.53;;;15.17;;
3847;SDS011;1939;48.720;9.166;2023-04-16T10:49:24;30.07;;;15.00;;
3847;SDS011;1939;48.720;9.166;2023-04-16T10:51:53;23.50;;;13.40;;
3847;SDS011;1939;48.720;9.166;2023-04-16T10:54:28;30.80;;;15.20;;
3847;SDS011;1939;48.720;9.166;2023-04-16T10:56:57;24.00;;;13.20;;
3847;SDS011;1939;48.720;9.166;2023-04-16T10:59:23;24.70;;;13.60;;
3847;SDS011;1939;48.720;9.166;2023-04-16T11:01:51;28.10;;;15.40;;
3847;SDS011;1939;48.720;9.166;2023-04-16T11:09:44;23.50;;;12.50;;
3847;SDS011;1939;48.720;9.166;2023-04-16T11:12:15;28.87;;;14.50;;
3847;SDS011;1939;48.720;9.166;2023-04-16T11:14:43;22.20;;;13.57;;
3847;SDS011;1939;48.720;9.166;2023-04-16T11:17:10;22.77;;;11.43;;
3847;SDS011;1939;48.720;9.166;2023-04-16T11:19:36;21.27;;;12.17;;
3847;SDS011;1939;48.720;9.166;2023-04-16T11:22:02;18.33;;;11.07;;
3847;SDS011;1939;48.720;9.166;2023-04-16T11:24:30;19.57;;;11.07;;
3847;SDS011;1939;48.720;9.166;2023-04-16T11:26:55;17.60;;;10.80;;
3847;SDS011;1939;48.720;9.166;2023-04-16T11:29:21;19.60;;;10.57;;
3847;SDS011;1939;48.720;9.166;2023-04-16T11:31:49;21.63;;;10.20;;
3847;SDS011;1939;48.720;9.166;2023-04-16T11:34:15;19.13;;;9.70;;
3847;SDS011;1939;48.720;9.166;2023-04-16T11:36:48;20.27;;;10.70;;
3847;SDS011;1939;48.720;9.166;2023-04-16T11:39:14;20.60;;;12.00;;
3847;SDS011;1939;48.720;9.166;2023-04-16T11:41:46;14.80;;;8.70;;
3847;SDS011;1939;48.720;9.166;2023-04-16T11:44:15;13.00;;;8.60;;
3847;SDS011;1939;48.720;9.166;2023-04-16T11:46:41;16.00;;;8.90;;
3847;SDS011;1939;48.720;9.166;2023-04-16T11:49:06;16.80;;;8.73;;
3847;SDS011;1939;48.720;9.166;2023-04-16T11:51:31;12.60;;;7.40;;
3847;SDS011;1939;48.720;9.166;2023-04-16T11:53:57;13.70;;;7.13;;
3847;SDS011;1939;48.720;9.166;2023-04-16T11:56:26;14.30;;;8.27;;
3847;SDS011;1939;48.720;9.166;2023-04-16T12:01:50;9.50;;;6.40;;
3847;SDS011;1939;48.720;9.166;2023-04-16T12:04:18;11.57;;;6.60;;
3847;SDS011;1939;48.720;9.166;2023-04-16T12:07:25;9.17;;;5.50;;
3847;SDS011;1939;48.720;9.166;2023-04-16T12:09:32;9.90;;;5.60;;
3847;SDS011;1939;48.720;9.166;2023-04-16T12:11:59;8.97;;;6.00;;
3847;SDS011;1939;48.720;9.166;2023-04-16T12:14:24;11.60;;;5.73;;
3847;SDS011;1939;48.720;9.166;2023-04-16T12:16:50;8.67;;;5.57;;
3847;SDS011;1939;48.720;9.166;2023-04-16T12:19:15;6.13;;;4.20;;
3847;SDS011;1939;48.720;9.166;2023-04-16T12:21:42;8.50;;;5.00;;
3847;SDS011;1939;48.720;9.166;2023-04-16T12:24:09;5.33;;;3.90;;
3847;SDS011;1939;48.720;9.166;2023-04-16T12:26:40;5.67;;;3.90;;
3847;SDS011;1939;48.720;9.166;2023-04-16T12:29:16;7.50;;;3.50;;
3847;SDS011;1939;48.720;9.166;2023-04-16T12:31:42;6.20;;;4.43;;
3847;SDS011;1939;48.720;9.166;2023-04-16T12:34:08;5.93;;;4.43;;
3847;SDS011;1939;48.720;9.166;2023-04-16T12:36:34;7.30;;;4.77;;
3847;SDS011;1939;48.720;9.166;2023-04-16T12:38:59;7.03;;;4.27;;
3847;SDS011;1939;48.720;9.166;2023-04-16T12:41:25;7.30;;;4.00;;
3847;SDS011;1939;48.720;9.166;2023-04-16T12:43:50;4.60;;;3.87;;
3847;SDS011;1939;48.720;9.166;2023-04-16T12:46:15;5.20;;;4.07;;
3847;SDS011;1939;48.720;9.166;2023-04-16T12:48:40;11.07;;;4.40;;
3847;SDS011;1939;48.720;9.166;2023-04-16T12:51:06;7.90;;;4.60;;
3847;SDS011;1939;48.720;9.166;2023-04-16T12:53:31;7.33;;;4.10;;
3847;SDS011;1939;48.720;9.166;2023-04-16T12:55:57;6.70;;;5.30;;
3847;SDS011;1939;48.720;9.166;2023-04-16T12:58:22;5.70;;;3.73;;
3847;SDS011;1939;48.720;9.166;2023-04-16T13:00:47;5.83;;;4.20;;
3847;SDS011;1939;48.720;9.166;2023-04-16T13:03:12;5.63;;;4.03;;
3847;SDS011;1939;48.720;9.166;2023-04-16T13:05:38;11.80;;;4.93;;
3847;SDS011;1939;48.720;9.166;2023-04-16T13:08:04;8.00;;;5.13;;
3847;SDS011;1939;48.720;9.166;2023-04-16T13:10:29;6.10;;;4.27;;
3847;SDS011;1939;48.720;9.166;2023-04-16T13:12:54;6.93;;;4.73;;
3847;SDS011;1939;48.720;9.166;2023-04-16T13:15:20;7.63;;;5.07;;
3847;SDS011;1939;48.720;9.166;2023-04-16T13:17:45;5.57;;;4.20;;
3847;SDS011;1939;48.720;9.166;2023-04-16T13:20:10;10.33;;;4.70;;
3847;SDS011;1939;48.720;9.166;2023-04-16T13:22:35;9.70;;;5.80;;
3847;SDS011;1939;48.720;9.166;2023-04-16T13:25:01;11.50;;;5.63;;
3847;SDS011;1939;48.720;9.166;2023-04-16T13:27:26;7.40;;;4.87;;
3847;SDS011;1939;48.720;9.166;2023-04-16T13:29:51;7.20;;;5.53;;
3847;SDS011;1939;48.720;9.166;2023-04-16T13:32:16;12.27;;;6.77;;
3847;SDS011;1939;48.720;9.166;2023-04-16T13:34:43;10.80;;;7.30;;
3847;SDS011;1939;48.720;9.166;2023-04-16T13:37:08;10.73;;;7.17;;
3847;SDS011;1939;48.720;9.166;2023-04-16T13:39:33;19.97;;;11.67;;
3847;SDS011;1939;48.720;9.166;2023-04-16T13:41:58;15.70;;;8.60;;
3847;SDS011;1939;48.720;9.166;2023-04-16T13:44:24;11.00;;;6.77;;
3847;SDS011;1939;48.720;9.166;2023-04-16T13:46:49;11.10;;;6.00;;
3847;SDS011;1939;48.720;9.166;2023-04-16T13:49:14;7.97;;;5.87;;
3847;SDS011;1939;48.720;9.166;2023-04-16T13:51:43;9.50;;;6.13;;
3847;SDS011;1939;48.720;9.166;2023-04-16T13:54:11;8.87;;;5.50;;
3847;SDS011;1939;48.720;9.166;2023-04-16T13:56:36;7.30;;;4.53;;
3847;SDS011;1939;48.720;9.166;2023-04-16T13:59:02;9.83;;;5.60;;
3847;SDS011;1939;48.720;9.166;2023-04-16T14:01:27;11.90;;;6.50;;
3847;SDS011;1939;48.720;9.166;2023-04-16T14:03:52;11.77;;;6.10;;
3847;SDS011;1939;48.720;9.166;2023-04-16T14:06:18;9.87;;;6.40;;
3847;SDS011;1939;48.720;9.166;2023-04-16T14:08:43;10.07;;;5.83;;
3847;SDS011;1939;48.720;9.166;2023-04-16T14:11:09;9.63;;;5.83;;
3847;SDS011;1939;48.720;9.166;2023-04-16T14:13:35;9.60;;;6.43;;
3847;SDS011;1939;48.720;9.166;2023-04-16T14:16:01;8.53;;;5.87;;
3847;SDS011;1939;48.720;9.166;2023-04-16T14:18:26;11.43;;;7.00;;
3847;SDS011;1939;48.720;9.166;2023-04-16T14:20:51;12.47;;;6.40;;
3847;SDS011;1939;48.720;9.166;2023-04-16T14:23:16;11.40;;;6.83;;
3847;SDS011;1939;48.720;9.166;2023-04-16T14:25:42;11.53;;;6.33;;
3847;SDS011;1939;48.720;9.166;2023-04-16T14:28:07;12.37;;;7.83;;
3847;SDS011;1939;48.720;9.166;2023-04-16T14:30:33;10.77;;;6.73;;
3847;SDS011;1939;48.720;9.166;2023-04-16T14:32:58;11.27;;;7.33;;
3847;SDS011;1939;48.720;9.166;2023-04-16T14:35:23;15.73;;;8.90;;
3847;SDS011;1939;48.720;9.166;2023-04-16T14:37:48;11.50;;;8.10;;
3847;SDS011;1939;48.720;9.166;2023-04-16T14:40:14;12.17;;;7.00;;
3847;SDS011;1939;48.720;9.166;2023-04-16T14:42:40;16.10;;;8.47;;
3847;SDS011;1939;48.720;9.166;2023-04-16T14:45:05;12.53;;;8.40;;
3847;SDS011;1939;48.720;9.166;2023-04-16T14:47:34;15.70;;;8.90;;
3847;SDS011;1939;48.720;9.166;2023-04-16T14:49:59;17.07;;;9.33;;
3847;SDS011;1939;48.720;9.166;2023-04-16T14:52:25;15.77;;;9.50;;
3847;SDS011;1939;48.720;9.166;2023-04-16T14:54:50;17.70;;;10.30;;